createdAt,value
2022-09-02T00:02:18.083Z,5.10
2022-09-02T00:04:44.639Z,5.06
2022-09-02T00:07:11.071Z,4.88
2022-09-02T00:09:37.470Z,4.95
2022-09-02T00:12:03.889Z,4.90
2022-09-02T00:14:30.267Z,4.59
2022-09-02T00:16:56.707Z,5.26
2022-09-02T00:19:23.092Z,4.94
2022-09-02T00:21:49.492Z,4.79
2022-09-02T00:24:15.898Z,4.81
2022-09-02T00:26:42.331Z,4.43
2022-09-02T00:29:08.761Z,4.91
2022-09-02T00:31:35.232Z,4.92
2022-09-02T00:34:01.697Z,5.21
2022-09-02T00:36:28.098Z,5.29
2022-09-02T00:38:54.546Z,4.91
2022-09-02T00:41:20.961Z,4.93
2022-09-02T00:43:47.373Z,5.07
2022-09-02T00:46:13.806Z,4.82
2022-09-02T00:48:40.265Z,5.24
2022-09-02T00:51:06.942Z,5.21
2022-09-02T00:53:33.411Z,5.54
2022-09-02T00:55:59.805Z,5.52
2022-09-02T00:58:26.205Z,5.30
2022-09-02T01:00:52.677Z,5.52
2022-09-02T01:03:19.236Z,5.33
2022-09-02T01:05:45.714Z,5.61
2022-09-02T01:08:12.117Z,5.27
2022-09-02T01:10:38.558Z,5.60
2022-09-02T01:13:04.972Z,5.44
2022-09-02T01:15:31.392Z,5.35
2022-09-02T01:17:57.767Z,5.80
2022-09-02T01:20:25.390Z,5.66
2022-09-02T01:22:52.122Z,5.60
2022-09-02T01:25:20.601Z,5.34
2022-09-02T01:27:47.009Z,5.61
2022-09-02T01:30:13.431Z,5.72
2022-09-02T01:32:39.841Z,5.27
2022-09-02T01:35:06.269Z,5.46
2022-09-02T01:37:32.661Z,5.60
2022-09-02T01:39:59.047Z,5.94
2022-09-02T01:42:25.446Z,5.38
2022-09-02T01:44:51.824Z,5.55
2022-09-02T01:47:18.218Z,5.62
2022-09-02T01:49:44.604Z,5.66
2022-09-02T01:52:11.022Z,5.61
2022-09-02T01:54:37.471Z,5.40
2022-09-02T01:57:03.910Z,5.50
2022-09-02T01:59:30.318Z,5.71
2022-09-02T02:01:56.816Z,5.50
2022-09-02T02:04:23.262Z,5.69
2022-09-02T02:06:52.337Z,5.80
2022-09-02T02:09:19.856Z,5.54
2022-09-02T02:11:46.264Z,5.56
2022-09-02T02:14:12.642Z,5.81
2022-09-02T02:16:39.099Z,5.85
2022-09-02T02:19:05.534Z,5.75
2022-09-02T02:21:31.928Z,5.70
2022-09-02T02:24:00.841Z,5.54
2022-09-02T02:26:27.251Z,5.84
2022-09-02T02:28:53.643Z,5.79
2022-09-02T02:31:20.122Z,5.69
2022-09-02T02:33:46.581Z,5.70
2022-09-02T02:36:12.982Z,5.77
2022-09-02T02:38:39.359Z,6.08
2022-09-02T02:41:05.773Z,6.40
2022-09-02T02:43:32.179Z,6.05
2022-09-02T02:45:58.603Z,6.19
2022-09-02T02:48:24.975Z,6.37
2022-09-02T02:50:51.388Z,6.63
2022-09-02T02:53:17.833Z,6.22
2022-09-02T02:55:44.253Z,6.52
2022-09-02T02:58:16.640Z,5.80
2022-09-02T03:00:43.273Z,6.04
2022-09-02T03:03:09.766Z,6.26
2022-09-02T03:05:36.243Z,6.22
2022-09-02T03:08:02.665Z,6.08
2022-09-02T03:10:29.053Z,6.09
2022-09-02T03:12:55.466Z,6.25
2022-09-02T03:15:21.839Z,6.05
2022-09-02T03:17:48.241Z,5.90
2022-09-02T03:20:14.635Z,5.78
2022-09-02T03:22:41.047Z,6.02
2022-09-02T03:25:08.662Z,6.09
2022-09-02T03:27:35.065Z,6.32
2022-09-02T03:30:01.460Z,6.43
2022-09-02T03:32:29.747Z,6.08
2022-09-02T03:34:57.106Z,6.12
2022-09-02T03:37:23.490Z,6.02
2022-09-02T03:39:49.905Z,6.08
2022-09-02T03:42:19.761Z,6.05
2022-09-02T03:44:46.378Z,6.21
2022-09-02T03:47:12.791Z,6.08
2022-09-02T03:49:39.185Z,6.13
2022-09-02T03:52:05.568Z,6.49
2022-09-02T03:54:31.969Z,6.23
2022-09-02T03:56:58.384Z,6.21
2022-09-02T03:59:24.998Z,6.15
2022-09-02T04:01:51.427Z,6.30
2022-09-02T04:04:22.177Z,6.13
2022-09-02T04:06:49.210Z,6.26
2022-09-02T04:09:15.603Z,6.64
2022-09-02T04:11:41.995Z,6.60
2022-09-02T04:14:08.370Z,6.62
2022-09-02T04:16:34.798Z,6.64
2022-09-02T04:19:01.274Z,6.60
2022-09-02T04:21:27.660Z,6.48
2022-09-02T04:23:54.071Z,6.80
2022-09-02T04:26:20.453Z,6.52
2022-09-02T04:28:46.848Z,6.44
2022-09-02T04:31:13.314Z,6.60
2022-09-02T04:33:39.790Z,6.30
2022-09-02T04:36:06.191Z,6.48
2022-09-02T04:38:32.627Z,6.67
2022-09-02T04:40:59.012Z,6.49
2022-09-02T04:43:25.427Z,6.65
2022-09-02T04:45:51.849Z,7.08
2022-09-02T04:48:18.333Z,7.30
2022-09-02T04:50:44.754Z,6.64
2022-09-02T04:53:11.155Z,6.80
2022-09-02T04:55:37.554Z,7.04
2022-09-02T04:58:03.963Z,6.68
2022-09-02T05:00:30.369Z,7.01
2022-09-02T05:02:56.867Z,7.13
2022-09-02T05:05:23.340Z,7.11
2022-09-02T05:07:49.717Z,7.31
2022-09-02T05:10:16.137Z,7.37
2022-09-02T05:12:42.514Z,7.53
2022-09-02T05:15:08.919Z,7.42
2022-09-02T05:17:35.333Z,7.79
2022-09-02T05:20:01.723Z,7.17
2022-09-02T05:22:28.121Z,7.19
2022-09-02T05:24:54.516Z,8.10
2022-09-02T05:27:20.908Z,7.05
2022-09-02T05:29:49.328Z,7.67
2022-09-02T05:32:15.741Z,7.74
2022-09-02T05:34:42.150Z,7.22
2022-09-02T05:37:08.543Z,7.33
2022-09-02T05:39:34.953Z,7.46
2022-09-02T05:42:01.367Z,7.61
2022-09-02T05:44:27.789Z,7.47
2022-09-02T05:46:54.196Z,7.73
2022-09-02T05:49:20.605Z,7.17
2022-09-02T05:51:47.021Z,7.14
2022-09-02T05:54:13.419Z,7.09
2022-09-02T05:56:39.812Z,7.13
2022-09-02T05:59:11.440Z,7.23
2022-09-02T06:01:37.971Z,7.79
2022-09-02T06:04:04.403Z,7.16
2022-09-02T06:06:30.798Z,7.45
2022-09-02T06:08:57.186Z,7.56
2022-09-02T06:11:23.580Z,7.73
2022-09-02T06:13:49.957Z,7.83
2022-09-02T06:16:16.480Z,7.92
2022-09-02T06:18:42.941Z,8.11
2022-09-02T06:21:09.400Z,7.70
2022-09-02T06:23:35.767Z,7.67
2022-09-02T06:26:02.163Z,7.78
2022-09-02T06:28:28.560Z,8.30
2022-09-02T06:30:54.991Z,8.26
2022-09-02T06:33:21.482Z,8.33
2022-09-02T06:35:47.901Z,8.25
2022-09-02T06:38:14.281Z,8.67
2022-09-02T06:40:40.739Z,8.28
2022-09-02T06:43:07.207Z,8.03
2022-09-02T06:45:33.609Z,8.12
2022-09-02T06:48:00.012Z,8.67
2022-09-02T06:50:26.542Z,8.04
2022-09-02T06:52:54.509Z,8.61
2022-09-02T06:55:20.921Z,8.76
2022-09-02T06:57:47.321Z,8.85
2022-09-02T07:00:13.710Z,8.66
2022-09-02T07:02:40.106Z,8.92
2022-09-02T07:05:06.484Z,8.99
2022-09-02T07:07:32.876Z,9.03
2022-09-02T07:09:59.275Z,8.53
2022-09-02T07:12:25.720Z,8.37
2022-09-02T07:14:52.170Z,8.45
2022-09-02T07:17:18.548Z,8.51
2022-09-02T07:19:44.923Z,8.82
2022-09-02T07:22:11.320Z,9.48
2022-09-02T07:24:37.708Z,9.12
2022-09-02T07:27:04.116Z,9.52
2022-09-02T07:29:30.487Z,9.03
2022-09-02T07:31:56.878Z,9.37
2022-09-02T07:34:23.285Z,9.21
2022-09-02T07:36:49.700Z,8.83
2022-09-02T07:39:16.182Z,9.13
2022-09-02T07:41:42.551Z,8.75
2022-09-02T07:44:08.981Z,9.13
2022-09-02T07:46:35.384Z,8.86
2022-09-02T07:49:01.781Z,9.16
2022-09-02T07:51:31.036Z,9.68
2022-09-02T07:53:57.547Z,8.71
2022-09-02T07:56:23.931Z,9.00
2022-09-02T07:58:50.316Z,9.38
2022-09-02T08:01:21.250Z,10.70
2022-09-02T08:03:49.680Z,9.42
2022-09-02T08:06:16.068Z,8.94
2022-09-02T08:08:42.476Z,9.08
2022-09-02T08:11:08.883Z,8.52
2022-09-02T08:13:35.272Z,9.11
2022-09-02T08:16:01.677Z,9.11
2022-09-02T08:18:28.082Z,8.96
2022-09-02T08:20:54.507Z,9.35
2022-09-02T08:23:36.243Z,9.28
2022-09-02T08:26:03.793Z,8.97
2022-09-02T08:28:30.189Z,8.69
2022-09-02T08:30:56.628Z,9.51
2022-09-02T08:33:24.562Z,9.94
2022-09-02T08:35:50.964Z,10.16
2022-09-02T08:38:17.416Z,10.07
2022-09-02T08:40:43.872Z,10.36
2022-09-02T08:43:10.309Z,10.14
2022-09-02T08:45:36.763Z,10.77
2022-09-02T08:48:03.174Z,10.25
2022-09-02T08:50:29.562Z,10.31
2022-09-02T08:52:55.997Z,10.28
2022-09-02T08:55:22.424Z,10.39
2022-09-02T08:57:48.852Z,9.94
2022-09-02T09:00:15.230Z,10.99
2022-09-02T09:02:46.683Z,10.64
2022-09-02T09:05:14.102Z,9.65
2022-09-02T09:07:40.506Z,9.49
2022-09-02T09:10:06.915Z,9.99
2022-09-02T09:12:33.313Z,10.27
2022-09-02T09:14:59.699Z,11.15
2022-09-02T09:17:26.109Z,10.61
2022-09-02T09:19:52.485Z,10.50
2022-09-02T09:22:18.918Z,10.68
2022-09-02T09:24:47.108Z,10.80
2022-09-02T09:27:13.531Z,10.65
2022-09-02T09:29:39.913Z,10.72
2022-09-02T09:32:06.318Z,12.05
2022-09-02T09:34:32.704Z,10.47
2022-09-02T09:36:59.132Z,10.78
2022-09-02T09:39:25.533Z,10.82
2022-09-02T09:41:51.931Z,11.69
2022-09-02T09:44:18.309Z,11.26
2022-09-02T09:46:44.710Z,11.37
2022-09-02T09:49:11.106Z,11.82
2022-09-02T09:51:50.038Z,11.28
2022-09-02T09:54:16.905Z,11.37
2022-09-02T09:56:43.293Z,10.96
2022-09-02T09:59:09.687Z,11.25
2022-09-02T10:01:36.110Z,11.43
2022-09-02T10:04:02.532Z,10.85
2022-09-02T10:06:28.919Z,10.93
2022-09-02T10:08:55.385Z,12.30
2022-09-02T10:11:21.810Z,12.20
2022-09-02T10:13:48.243Z,11.49
2022-09-02T10:16:14.748Z,12.13
2022-09-02T10:18:41.242Z,12.68
2022-09-02T10:21:15.492Z,12.64
2022-09-02T10:23:42.518Z,13.30
2022-09-02T10:26:08.928Z,12.34
2022-09-02T10:28:35.340Z,11.87
2022-09-02T10:31:01.838Z,12.33
2022-09-02T10:33:28.320Z,12.69
2022-09-02T10:35:54.700Z,12.06
2022-09-02T10:38:21.105Z,11.62
2022-09-02T10:40:47.544Z,10.87
2022-09-02T10:43:14.034Z,10.62
2022-09-02T10:45:40.477Z,11.35
2022-09-02T10:48:06.882Z,10.26
2022-09-02T10:50:33.266Z,9.93
2022-09-02T10:52:59.655Z,10.31
2022-09-02T10:55:26.059Z,10.31
2022-09-02T10:57:52.449Z,10.91
2022-09-02T11:00:18.882Z,9.86
2022-09-02T11:02:45.272Z,10.18
2022-09-02T11:05:11.677Z,10.48
2022-09-02T11:07:38.099Z,10.01
2022-09-02T11:10:04.488Z,9.21
2022-09-02T11:12:30.892Z,8.79
2022-09-02T11:14:57.309Z,8.84
2022-09-02T11:17:23.724Z,8.96
2022-09-02T11:19:50.113Z,8.94
2022-09-02T11:22:16.539Z,9.63
2022-09-02T11:24:46.380Z,9.46
2022-09-02T11:27:26.277Z,8.63
2022-09-02T11:29:59.497Z,9.36
2022-09-02T11:32:25.941Z,9.14
2022-09-02T11:34:52.332Z,8.15
2022-09-02T11:37:19.800Z,8.25
2022-09-02T11:39:59.145Z,8.20
2022-09-02T11:42:32.644Z,8.77
2022-09-02T11:44:59.067Z,8.55
2022-09-02T11:47:25.545Z,8.97
2022-09-02T11:49:51.931Z,8.97
2022-09-02T11:52:19.151Z,8.58
2022-09-02T11:54:45.542Z,8.75
2022-09-02T11:57:12.352Z,8.28
2022-09-02T11:59:38.820Z,8.10
2022-09-02T12:02:05.254Z,7.93
2022-09-02T12:07:18.044Z,7.67
2022-09-02T12:12:15.735Z,7.69
2022-09-02T12:14:42.134Z,6.78
2022-09-02T12:17:08.611Z,6.71
2022-09-02T12:19:35.195Z,6.18
2022-09-02T12:22:01.589Z,6.28
2022-09-02T12:24:28.687Z,6.48
2022-09-02T12:26:55.074Z,6.94
2022-09-02T12:29:21.441Z,6.73
2022-09-02T12:31:47.906Z,6.53
2022-09-02T12:34:14.757Z,6.33
2022-09-02T12:36:41.142Z,6.51
2022-09-02T12:39:09.876Z,6.82
2022-09-02T12:41:36.436Z,7.45
2022-09-02T12:44:02.821Z,7.19
2022-09-02T12:46:29.261Z,6.95
2022-09-02T12:48:55.695Z,6.99
2022-09-02T12:51:22.098Z,6.94
2022-09-02T12:53:48.505Z,7.03
2022-09-02T12:56:14.889Z,6.56
2022-09-02T12:58:41.330Z,6.96
2022-09-02T13:01:07.733Z,6.89
2022-09-02T13:03:35.233Z,6.67
2022-09-02T13:06:01.616Z,6.40
2022-09-02T13:08:28.024Z,5.99
2022-09-02T13:10:54.433Z,5.67
2022-09-02T13:13:20.890Z,5.25
2022-09-02T13:15:47.325Z,5.28
2022-09-02T13:18:13.742Z,5.26
2022-09-02T13:20:40.141Z,5.48
2022-09-02T13:23:06.586Z,5.61
2022-09-02T13:25:33.913Z,5.76
2022-09-02T13:28:00.318Z,5.73
2022-09-02T13:30:26.825Z,6.07
2022-09-02T13:32:56.552Z,6.00
2022-09-02T13:35:24.370Z,5.76
2022-09-02T13:37:51.033Z,6.18
2022-09-02T13:40:17.500Z,6.09
2022-09-02T13:42:43.879Z,6.20
2022-09-02T13:45:10.332Z,6.37
2022-09-02T13:47:36.717Z,6.22
2022-09-02T13:50:03.170Z,5.69
2022-09-02T13:53:12.453Z,5.75
2022-09-02T13:55:15.982Z,5.31
2022-09-02T13:57:42.379Z,5.26
2022-09-02T14:00:08.803Z,5.85
2022-09-02T14:02:35.741Z,6.30
2022-09-02T14:05:02.266Z,6.85
2022-09-02T14:07:28.646Z,6.31
2022-09-02T14:09:56.234Z,6.75
2022-09-02T14:12:22.652Z,6.69
2022-09-02T14:14:49.044Z,6.29
2022-09-02T14:17:15.433Z,6.08
2022-09-02T14:19:41.826Z,5.72
2022-09-02T14:22:08.221Z,5.80
2022-09-02T14:24:34.618Z,5.32
2022-09-02T14:27:01.012Z,5.62
2022-09-02T14:29:27.406Z,5.19
2022-09-02T14:31:53.799Z,5.78
2022-09-02T14:34:20.199Z,5.68
2022-09-02T14:36:46.593Z,6.29
2022-09-02T14:39:13.037Z,5.71
2022-09-02T14:41:39.427Z,6.01
2022-09-02T14:44:05.829Z,6.18
2022-09-02T14:46:32.434Z,6.04
2022-09-02T14:48:58.850Z,6.12
2022-09-02T14:51:25.290Z,6.01
2022-09-02T14:53:51.718Z,5.63
2022-09-02T14:56:18.100Z,5.74
2022-09-02T14:58:44.532Z,5.66
2022-09-02T15:01:10.957Z,5.36
2022-09-02T15:03:37.373Z,5.24
2022-09-02T15:06:03.768Z,5.20
2022-09-02T15:08:30.150Z,5.39
2022-09-02T15:10:56.544Z,5.40
2022-09-02T15:13:22.920Z,5.55
2022-09-02T15:15:49.352Z,5.56
2022-09-02T15:18:15.760Z,5.48
2022-09-02T15:20:42.222Z,5.20
2022-09-02T15:23:08.758Z,5.24
2022-09-02T15:25:35.880Z,5.13
2022-09-02T15:28:02.278Z,5.13
2022-09-02T15:30:28.668Z,4.83
2022-09-02T15:32:55.077Z,5.32
2022-09-02T15:35:21.477Z,5.53
2022-09-02T15:37:47.874Z,5.16
2022-09-02T15:40:14.251Z,5.18
2022-09-02T15:42:40.628Z,5.42
2022-09-02T15:45:07.016Z,6.07
2022-09-02T15:47:33.414Z,5.65
2022-09-02T15:49:59.869Z,6.18
2022-09-02T15:52:26.247Z,6.83
2022-09-02T15:54:52.636Z,6.31
2022-09-02T15:57:19.040Z,5.91
2022-09-02T15:59:45.435Z,6.09
2022-09-02T16:02:11.881Z,6.26
2022-09-02T16:04:38.341Z,6.08
2022-09-02T16:07:04.761Z,5.76
2022-09-02T16:09:31.148Z,5.77
2022-09-02T16:11:57.547Z,5.59
2022-09-02T16:14:23.956Z,5.65
2022-09-02T16:16:50.873Z,5.60
2022-09-02T16:19:17.408Z,5.58
2022-09-02T16:21:43.799Z,4.90
2022-09-02T16:24:10.203Z,5.13
2022-09-02T16:26:36.629Z,4.92
2022-09-02T16:29:02.996Z,5.13
2022-09-02T16:31:29.391Z,4.72
2022-09-02T16:33:55.802Z,4.70
2022-09-02T16:36:22.179Z,4.82
2022-09-02T16:38:48.568Z,5.07
2022-09-02T16:41:14.956Z,5.31
2022-09-02T16:43:41.564Z,5.56
2022-09-02T16:46:08.019Z,5.87
2022-09-02T16:48:34.444Z,5.78
2022-09-02T16:51:00.821Z,6.06
2022-09-02T16:53:27.216Z,6.06
2022-09-02T16:55:53.651Z,6.03
2022-09-02T16:58:20.037Z,6.17
2022-09-02T17:00:46.454Z,5.90
2022-09-02T17:03:12.833Z,6.03
2022-09-02T17:05:39.210Z,6.33
2022-09-02T17:08:05.610Z,6.53
2022-09-02T17:10:31.991Z,6.80
2022-09-02T17:12:58.500Z,6.47
2022-09-02T17:15:24.899Z,6.50
2022-09-02T17:17:51.336Z,6.20
2022-09-02T17:20:17.725Z,6.12
2022-09-02T17:22:44.165Z,6.34
2022-09-02T17:25:10.559Z,6.16
2022-09-02T17:27:36.966Z,6.83
2022-09-02T17:30:03.358Z,6.39
2022-09-02T17:32:29.770Z,6.26
2022-09-02T17:34:56.171Z,6.45
2022-09-02T17:37:22.616Z,6.31
2022-09-02T17:39:49.114Z,6.47
2022-09-02T17:42:15.606Z,7.32
2022-09-02T17:44:41.999Z,6.62
2022-09-02T17:47:08.394Z,6.68
2022-09-02T17:49:34.770Z,6.20
2022-09-02T17:52:01.165Z,6.77
2022-09-02T17:54:27.596Z,8.56
2022-09-02T17:56:54.035Z,6.93
2022-09-02T17:59:20.423Z,6.26
2022-09-02T18:01:46.803Z,6.13
2022-09-02T18:04:13.258Z,6.34
2022-09-02T18:06:39.682Z,6.28
2022-09-02T18:09:06.071Z,6.22
2022-09-02T18:11:37.453Z,6.27
2022-09-02T18:14:03.859Z,6.80
2022-09-02T18:16:30.276Z,6.73
2022-09-02T18:18:59.642Z,6.90
2022-09-02T18:21:26.057Z,7.55
2022-09-02T18:23:52.476Z,7.29
2022-09-02T18:26:20.767Z,6.75
2022-09-02T18:28:47.175Z,6.45
2022-09-02T18:31:13.587Z,5.93
2022-09-02T18:33:39.985Z,5.99
2022-09-02T18:36:06.374Z,5.98
2022-09-02T18:38:32.773Z,6.29
2022-09-02T18:40:59.188Z,6.56
2022-09-02T18:43:25.588Z,6.36
2022-09-02T18:45:52.039Z,6.40
2022-09-02T18:48:18.529Z,6.31
2022-09-02T18:50:50.958Z,6.75
2022-09-02T18:53:18.136Z,6.74
2022-09-02T18:55:44.531Z,6.67
2022-09-02T18:58:11.037Z,6.74
2022-09-02T19:00:38.176Z,6.54
2022-09-02T19:03:04.696Z,6.75
2022-09-02T19:05:31.077Z,6.54
2022-09-02T19:07:58.878Z,6.58
2022-09-02T19:10:25.258Z,6.81
2022-09-02T19:12:51.680Z,6.44
2022-09-02T19:15:18.106Z,6.42
2022-09-02T19:17:44.528Z,6.80
2022-09-02T19:20:10.911Z,6.61
2022-09-02T19:22:37.298Z,7.04
2022-09-02T19:25:03.684Z,6.86
2022-09-02T19:27:30.079Z,6.44
2022-09-02T19:29:56.517Z,6.65
2022-09-02T19:32:22.937Z,7.07
2022-09-02T19:34:49.331Z,6.98
2022-09-02T19:37:15.749Z,5.95
2022-09-02T19:39:42.208Z,6.06
2022-09-02T19:42:08.665Z,6.28
2022-09-02T19:44:35.117Z,6.45
2022-09-02T19:49:47.906Z,6.13
2022-09-02T19:52:14.286Z,6.39
2022-09-02T19:54:40.714Z,5.92
2022-09-02T19:57:07.146Z,6.06
2022-09-02T19:59:33.558Z,5.96
2022-09-02T20:02:00.047Z,6.46
2022-09-02T20:04:30.058Z,6.37
2022-09-02T20:06:56.627Z,6.73
2022-09-02T20:09:23.024Z,6.79
2022-09-02T20:11:49.442Z,6.30
2022-09-02T20:14:15.815Z,6.19
2022-09-02T20:16:42.233Z,6.35
2022-09-02T20:19:08.682Z,6.95
2022-09-02T20:21:35.100Z,6.76
2022-09-02T20:24:01.499Z,6.39
2022-09-02T20:26:27.887Z,6.49
2022-09-02T20:28:54.313Z,6.79
2022-09-02T20:31:20.753Z,12.00
2022-09-02T20:33:47.217Z,11.51
2022-09-02T20:36:13.631Z,8.37
2022-09-02T20:38:40.034Z,7.37
2022-09-02T20:41:06.456Z,7.53
2022-09-02T20:43:32.880Z,7.09
2022-09-02T20:45:59.309Z,7.27
2022-09-02T20:48:25.728Z,7.08
2022-09-02T20:50:52.190Z,7.17
2022-09-02T20:53:18.597Z,7.62
2022-09-02T20:55:45.302Z,7.50
2022-09-02T20:58:11.782Z,7.50
2022-09-02T21:00:38.210Z,7.98
2022-09-02T21:03:06.476Z,7.95
2022-09-02T21:05:32.877Z,7.53
2022-09-02T21:07:59.380Z,7.32
2022-09-02T21:10:25.762Z,7.09
2022-09-02T21:12:52.172Z,7.08
2022-09-02T21:15:18.546Z,6.90
2022-09-02T21:17:48.439Z,6.78
2022-09-02T21:20:15.229Z,6.69
2022-09-02T21:22:41.639Z,7.47
2022-09-02T21:25:08.064Z,7.78
2022-09-02T21:27:34.490Z,7.89
2022-09-02T21:30:02.731Z,8.34
2022-09-02T21:32:29.509Z,7.28
2022-09-02T21:34:56.049Z,7.86
2022-09-02T21:37:22.521Z,8.39
2022-09-02T21:39:49.094Z,8.12
2022-09-02T21:42:15.675Z,8.54
2022-09-02T21:44:42.081Z,8.51
2022-09-02T21:47:08.482Z,8.62
2022-09-02T21:49:34.897Z,9.13
2022-09-02T21:52:01.320Z,8.88
2022-09-02T21:54:27.739Z,8.03
2022-09-02T21:56:54.143Z,8.19
2022-09-02T21:59:20.538Z,7.98
2022-09-02T22:01:46.986Z,8.03
2022-09-02T22:04:13.411Z,7.68
2022-09-02T22:06:39.822Z,7.19
2022-09-02T22:09:06.229Z,6.67
2022-09-02T22:11:32.617Z,6.87
2022-09-02T22:13:59.062Z,6.27
2022-09-02T22:16:25.577Z,6.18
2022-09-02T22:18:52.051Z,5.67
2022-09-02T22:21:18.423Z,5.63
2022-09-02T22:23:44.819Z,5.09
2022-09-02T22:26:11.253Z,5.37
2022-09-02T22:28:37.661Z,5.21
2022-09-02T22:31:04.114Z,5.40
2022-09-02T22:33:30.929Z,5.11
2022-09-02T22:35:57.454Z,5.07
2022-09-02T22:38:23.980Z,5.29
2022-09-02T22:40:50.460Z,4.93
2022-09-02T22:43:16.832Z,5.06
2022-09-02T22:45:43.225Z,7.84
2022-09-02T22:48:09.639Z,5.24
2022-09-02T22:50:36.084Z,5.28
2022-09-02T22:53:02.724Z,5.57
2022-09-02T22:55:29.432Z,5.19
2022-09-02T22:57:55.924Z,5.43
2022-09-02T23:00:22.300Z,5.67
2022-09-02T23:02:48.712Z,5.60
2022-09-02T23:05:15.108Z,6.64
2022-09-02T23:07:41.509Z,6.56
2022-09-02T23:10:07.929Z,7.17
2022-09-02T23:12:34.346Z,7.55
2022-09-02T23:15:00.752Z,7.63
2022-09-02T23:17:27.157Z,7.33
2022-09-02T23:19:53.546Z,7.50
2022-09-02T23:22:19.963Z,7.51
2022-09-02T23:24:46.374Z,7.27
2022-09-02T23:27:12.744Z,7.41
2022-09-02T23:29:39.134Z,7.71
2022-09-02T23:32:05.506Z,7.23
2022-09-02T23:34:31.920Z,7.55
2022-09-02T23:36:58.302Z,7.39
2022-09-02T23:39:24.725Z,7.15
2022-09-02T23:41:51.221Z,7.70
2022-09-02T23:44:17.659Z,7.06
2022-09-02T23:46:44.134Z,7.14
2022-09-02T23:49:10.566Z,7.02
2022-09-02T23:51:36.962Z,7.34
2022-09-02T23:54:03.434Z,7.25
2022-09-02T23:56:32.656Z,7.11
2022-09-02T23:58:59.230Z,6.86
